createdAt,value
2023-03-17T00:00:50.687Z,74.89
2023-03-17T00:05:55.700Z,74.91
2023-03-17T00:10:55.070Z,74.99
2023-03-17T00:16:01.211Z,75.09
2023-03-17T00:21:01.098Z,75.21
2023-03-17T00:26:00.518Z,75.33
2023-03-17T00:31:02.817Z,75.37
2023-03-17T00:36:03.230Z,75.46
2023-03-17T00:41:03.277Z,75.55
2023-03-17T00:46:03.297Z,75.66
2023-03-17T00:51:01.851Z,75.69
2023-03-17T00:56:00.991Z,75.73
2023-03-17T01:01:01.023Z,75.52
2023-03-17T01:06:00.555Z,75.78
2023-03-17T01:10:59.843Z,75.97
2023-03-17T01:15:59.571Z,76.10
2023-03-17T01:20:58.781Z,76.24
2023-03-17T01:25:58.819Z,76.33
2023-03-17T01:30:58.855Z,76.39
2023-03-17T01:35:58.144Z,76.48
2023-03-17T01:40:57.649Z,76.52
2023-03-17T01:46:37.644Z,76.61
2023-03-17T01:51:44.524Z,76.63
2023-03-17T01:56:49.186Z,76.66
2023-03-17T02:01:54.225Z,76.77
2023-03-17T02:06:58.449Z,76.98
2023-03-17T02:11:59.958Z,77.07
2023-03-17T02:17:00.018Z,77.23
2023-03-17T02:22:01.046Z,77.57
2023-03-17T02:27:05.790Z,77.99
2023-03-17T02:32:05.586Z,77.83
2023-03-17T02:37:04.967Z,77.91
2023-03-17T02:42:05.470Z,77.96
2023-03-17T02:47:07.597Z,78.09
2023-03-17T02:52:07.515Z,78.33
2023-03-17T02:57:07.671Z,78.50
2023-03-17T03:02:07.094Z,78.52
2023-03-17T03:07:06.461Z,78.47
2023-03-17T03:12:06.221Z,78.41
2023-03-17T03:17:05.973Z,78.53
2023-03-17T03:22:05.237Z,78.62
2023-03-17T03:27:04.861Z,78.60
2023-03-17T03:32:04.718Z,78.68
2023-03-17T03:37:03.638Z,78.67
2023-03-17T03:42:02.658Z,78.89
2023-03-17T03:47:02.788Z,78.96
2023-03-17T03:52:01.993Z,78.99
2023-03-17T03:57:01.193Z,79.15
2023-03-17T04:02:00.366Z,79.27
2023-03-17T04:07:00.260Z,79.34
2023-03-17T04:11:59.630Z,79.50
2023-03-17T04:16:58.506Z,79.73
2023-03-17T04:21:57.761Z,79.68
2023-03-17T04:26:57.549Z,79.95
2023-03-17T04:31:57.196Z,80.20
2023-03-17T04:36:56.571Z,80.24
2023-03-17T04:41:55.996Z,80.11
2023-03-17T04:46:54.854Z,80.25
2023-03-17T04:51:53.875Z,80.35
2023-03-17T04:56:53.495Z,80.37
2023-03-17T05:01:53.733Z,80.53
2023-03-17T05:06:53.256Z,80.87
2023-03-17T05:11:53.065Z,81.18
2023-03-17T05:16:53.726Z,81.36
2023-03-17T05:21:52.742Z,81.47
2023-03-17T05:26:51.774Z,81.33
2023-03-17T05:31:51.087Z,81.26
2023-03-17T05:36:50.576Z,81.19
2023-03-17T05:41:50.508Z,81.09
2023-03-17T05:46:49.747Z,80.92
2023-03-17T05:51:49.076Z,80.99
2023-03-17T05:56:48.136Z,81.75
2023-03-17T06:01:47.735Z,82.05
2023-03-17T06:06:46.978Z,81.99
2023-03-17T06:11:46.199Z,82.35
2023-03-17T06:16:45.231Z,82.25
2023-03-17T06:21:44.276Z,82.29
2023-03-17T06:26:44.063Z,82.55
2023-03-17T06:31:50.590Z,82.65
2023-03-17T06:36:51.127Z,82.55
2023-03-17T06:41:51.206Z,82.32
2023-03-17T06:46:51.387Z,82.12
2023-03-17T06:51:51.651Z,81.67
2023-03-17T06:56:51.139Z,81.74
2023-03-17T07:01:52.172Z,81.76
2023-03-17T07:06:51.688Z,81.20
2023-03-17T07:11:51.818Z,81.35
2023-03-17T07:16:52.635Z,81.31
2023-03-17T07:21:51.473Z,81.34
2023-03-17T07:26:51.049Z,81.24
2023-03-17T07:31:50.738Z,80.67
2023-03-17T07:36:49.456Z,80.55
2023-03-17T07:41:53.233Z,79.84
2023-03-17T07:46:53.067Z,79.71
2023-03-17T07:51:52.490Z,79.21
2023-03-17T07:56:51.729Z,78.33
2023-03-17T08:01:51.032Z,76.63
2023-03-17T08:06:50.597Z,76.84
2023-03-17T08:11:49.862Z,74.43
2023-03-17T08:16:48.764Z,73.58
2023-03-17T08:21:47.521Z,73.16
2023-03-17T08:26:49.146Z,72.82
2023-03-17T08:31:48.367Z,71.85
2023-03-17T08:36:47.948Z,70.20
2023-03-17T08:41:47.228Z,68.67
2023-03-17T08:46:47.338Z,68.58
2023-03-17T08:51:49.036Z,67.36
2023-03-17T08:56:48.987Z,66.33
2023-03-17T09:01:49.124Z,63.42
2023-03-17T09:07:02.380Z,59.17
2023-03-17T09:12:03.270Z,56.92
2023-03-17T09:17:05.408Z,56.02
2023-03-17T09:22:07.026Z,53.69
2023-03-17T09:27:07.119Z,55.04
2023-03-17T09:32:06.288Z,51.83
2023-03-17T09:37:05.573Z,53.06
2023-03-17T09:42:26.416Z,52.98
2023-03-17T09:47:50.164Z,50.92
2023-03-17T09:52:51.551Z,51.65
2023-03-17T09:57:55.940Z,49.95
2023-03-17T10:02:55.794Z,48.59
2023-03-17T10:08:19.083Z,48.24
2023-03-17T10:13:47.327Z,49.58
2023-03-17T10:18:53.242Z,45.93
2023-03-17T10:23:54.541Z,48.48
2023-03-17T10:28:54.432Z,42.91
2023-03-17T10:33:55.761Z,45.08
2023-03-17T10:38:57.254Z,43.72
2023-03-17T10:43:59.676Z,44.14
2023-03-17T10:49:08.415Z,42.85
2023-03-17T10:54:19.204Z,43.27
2023-03-17T10:59:28.972Z,39.47
2023-03-17T11:04:42.691Z,39.39
2023-03-17T11:09:42.741Z,40.38
2023-03-17T11:14:46.049Z,36.42
2023-03-17T11:19:56.032Z,38.20
2023-03-17T11:25:10.230Z,36.58
2023-03-17T11:30:24.548Z,38.20
2023-03-17T11:41:19.961Z,37.81
2023-03-17T11:46:27.696Z,36.83
2023-03-17T11:51:37.751Z,38.16
2023-03-17T11:56:48.308Z,36.78
2023-03-17T12:01:59.818Z,34.50
2023-03-17T12:07:09.597Z,35.93
2023-03-17T12:12:13.818Z,39.23
2023-03-17T12:17:26.838Z,34.21
2023-03-17T12:22:38.528Z,37.30
2023-03-17T12:27:51.837Z,35.36
2023-03-17T12:33:00.724Z,37.59
2023-03-17T12:38:03.112Z,35.06
2023-03-17T12:43:30.801Z,34.61
2023-03-17T12:49:05.154Z,37.18
2023-03-17T12:54:04.763Z,39.75
2023-03-17T12:59:10.235Z,38.47
2023-03-17T13:04:32.734Z,37.60
2023-03-17T13:10:10.514Z,36.23
2023-03-17T13:15:32.154Z,37.23
2023-03-17T13:20:44.777Z,38.11
2023-03-17T13:25:55.452Z,36.83
2023-03-17T13:31:16.348Z,36.20
2023-03-17T13:36:34.793Z,38.11
2023-03-17T13:42:15.792Z,36.95
2023-03-17T13:47:42.164Z,37.25
2023-03-17T13:52:50.580Z,37.24
2023-03-17T13:58:23.910Z,38.13
2023-03-17T14:03:35.632Z,38.25
2023-03-17T14:08:39.407Z,38.91
2023-03-17T14:13:50.044Z,38.20
2023-03-17T14:18:55.527Z,38.62
2023-03-17T14:24:01.684Z,39.42
2023-03-17T14:29:05.696Z,39.67
2023-03-17T14:34:05.622Z,38.29
2023-03-17T14:39:04.580Z,39.39
2023-03-17T14:44:04.639Z,39.89
2023-03-17T14:49:15.894Z,40.70
2023-03-17T14:54:23.152Z,39.98
2023-03-17T14:59:29.197Z,39.16
2023-03-17T15:04:31.544Z,39.35
2023-03-17T15:09:36.414Z,39.13
2023-03-17T15:14:40.405Z,38.41
2023-03-17T15:19:45.188Z,38.27
2023-03-17T15:24:45.554Z,38.18
2023-03-17T15:29:45.037Z,38.09
2023-03-17T15:34:45.265Z,38.77
2023-03-17T15:39:47.640Z,38.92
2023-03-17T15:44:46.542Z,39.53
2023-03-17T15:49:46.781Z,39.26
2023-03-17T15:54:46.447Z,39.85
2023-03-17T15:59:46.688Z,39.83
2023-03-17T16:04:46.336Z,39.83
2023-03-17T16:09:47.083Z,40.11
2023-03-17T16:14:47.473Z,40.37
2023-03-17T16:19:46.709Z,40.90
2023-03-17T16:24:45.993Z,41.19
2023-03-17T16:29:45.794Z,41.43
2023-03-17T16:34:45.758Z,41.81
2023-03-17T16:39:45.300Z,42.11
2023-03-17T16:44:45.486Z,42.46
2023-03-17T16:49:44.439Z,42.95
2023-03-17T16:54:44.558Z,43.53
2023-03-17T16:59:44.193Z,44.25
2023-03-17T17:04:43.925Z,44.54
2023-03-17T17:09:43.052Z,44.52
2023-03-17T17:14:45.706Z,45.09
2023-03-17T17:19:45.664Z,46.32
2023-03-17T17:24:44.666Z,46.96
2023-03-17T17:29:44.488Z,47.84
2023-03-17T17:34:43.404Z,48.13
2023-03-17T17:39:42.916Z,48.37
2023-03-17T17:44:42.900Z,48.29
2023-03-17T17:49:43.317Z,48.39
2023-03-17T17:54:42.317Z,49.09
2023-03-17T17:59:41.667Z,49.51
2023-03-17T18:04:40.477Z,49.86
2023-03-17T18:09:39.563Z,49.98
2023-03-17T18:14:38.922Z,50.76
2023-03-17T18:19:38.735Z,51.07
2023-03-17T18:24:38.030Z,51.19
2023-03-17T18:29:37.450Z,51.82
2023-03-17T18:34:43.576Z,52.11
2023-03-17T18:39:44.500Z,51.96
2023-03-17T18:44:44.439Z,52.34
2023-03-17T18:49:47.248Z,52.42
2023-03-17T18:54:49.220Z,52.75
2023-03-17T18:59:48.779Z,53.07
2023-03-17T19:04:47.925Z,53.27
2023-03-17T19:09:47.174Z,53.25
2023-03-17T19:14:46.374Z,53.30
2023-03-17T19:19:45.668Z,53.47
2023-03-17T19:24:46.101Z,53.56
2023-03-17T19:29:45.160Z,53.71
2023-03-17T19:34:44.558Z,53.74
2023-03-17T19:39:45.569Z,53.71
2023-03-17T19:44:44.886Z,53.67
2023-03-17T19:49:43.696Z,53.64
2023-03-17T19:54:45.928Z,53.59
2023-03-17T19:59:45.569Z,53.50
2023-03-17T20:04:44.798Z,53.35
2023-03-17T20:09:46.390Z,53.24
2023-03-17T20:14:46.239Z,53.24
2023-03-17T20:19:46.348Z,53.14
2023-03-17T20:24:45.967Z,53.12
2023-03-17T20:29:46.539Z,53.04
2023-03-17T20:34:47.395Z,53.08
2023-03-17T20:39:46.888Z,53.06
2023-03-17T20:44:52.785Z,53.08
2023-03-17T20:49:53.318Z,53.00
2023-03-17T20:54:52.563Z,53.03
2023-03-17T20:59:51.509Z,53.07
2023-03-17T21:04:51.502Z,53.13
2023-03-17T21:09:52.048Z,53.22
2023-03-17T21:14:52.250Z,53.37
2023-03-17T21:19:51.204Z,53.40
2023-03-17T21:24:50.144Z,53.63
2023-03-17T21:29:50.271Z,53.79
2023-03-17T21:34:50.781Z,54.02
2023-03-17T21:39:50.670Z,54.08
2023-03-17T21:44:52.122Z,54.09
2023-03-17T21:49:51.502Z,54.04
2023-03-17T21:54:50.615Z,54.03
2023-03-17T21:59:52.350Z,54.09
2023-03-17T22:04:52.486Z,54.03
2023-03-17T22:09:54.831Z,54.09
2023-03-17T22:14:57.277Z,54.07
2023-03-17T22:19:58.212Z,54.08
2023-03-17T22:24:58.199Z,54.03
2023-03-17T22:29:57.906Z,54.04
2023-03-17T22:34:57.499Z,54.08
2023-03-17T22:40:02.602Z,54.03
2023-03-17T22:45:02.475Z,53.92
2023-03-17T22:50:02.281Z,53.81
2023-03-17T22:55:01.542Z,53.78
2023-03-17T23:00:01.123Z,53.69
2023-03-17T23:05:00.957Z,53.61
2023-03-17T23:10:00.748Z,53.48
2023-03-17T23:15:00.642Z,53.37
2023-03-17T23:20:02.916Z,53.18
2023-03-17T23:25:03.841Z,53.09
2023-03-17T23:30:03.783Z,52.96
2023-03-17T23:35:03.386Z,52.80
2023-03-17T23:40:02.800Z,52.58
2023-03-17T23:45:02.282Z,52.58
2023-03-17T23:50:02.231Z,52.46
2023-03-17T23:55:02.172Z,52.34
